Terminal Aerodrome Forecast
Issued by NWS

Home | Current Version | Previous Version | Text Only | Print | Product List | Glossary On
Versions: 1 2 3 4 5 6 7 8 9 10 11 12 13 14 15 16 17 18 19 20
628
FTUS43 KTOP 300520
TAFMHK
TAF
KMHK 300520Z 3006/0106 04015G23KT 3SM -RA BR OVC008
      TEMPO 3009/3013 2SM RA BR OVC005
     FM301600 10008KT 4SM -RA OVC004
     FM302000 17008KT 6SM BR VCSH OVC009
     FM010300 28013KT 4SM -RA OVC007=

USA.gov is the U.S. government's official web portal to all federal, state and local government web resources and services.